Terminal Aerodrome Forecast
Issued by NWS

Home | Current Version | Previous Version | Text Only | Print | Product List | Glossary On
Versions: 1 2 3 4 5 6 7 8 9 10 11 12
000
FTUS45 KVEF 280200 AAA
TAFHND
TAF AMD
KHND 280244Z 2803/2824 18011KT P6SM VCSH SCT070 BKN110
     FM280400 20010G18KT P6SM FEW100 SCT150
     FM281700 22018G28KT P6SM FEW100 SCT150=

USA.gov is the U.S. government's official web portal to all federal, state and local government web resources and services.